createdAt,value
2023-05-23T00:00:07.715Z,96561.75
2023-05-23T00:02:42.879Z,96561.38
2023-05-23T00:05:11.743Z,96559.09
2023-05-23T00:07:40.440Z,96559.84
2023-05-23T00:10:09.829Z,96565.91
2023-05-23T00:12:39.496Z,96556.19
2023-05-23T00:15:09.986Z,96560.97
2023-05-23T00:17:39.623Z,96563.09
2023-05-23T00:20:11.947Z,96554.75
2023-05-23T00:22:43.004Z,96557.00
2023-05-23T00:25:12.228Z,96563.03
2023-05-23T00:27:40.883Z,96563.00
2023-05-23T00:30:10.328Z,96565.28
2023-05-23T00:32:38.797Z,96564.59
2023-05-23T00:35:10.168Z,96572.53
2023-05-23T00:37:39.074Z,96571.16
2023-05-23T00:40:09.308Z,96575.41
2023-05-23T00:42:37.973Z,96570.75
2023-05-23T00:45:08.416Z,96573.13
2023-05-23T00:47:37.169Z,96576.19
2023-05-23T00:50:07.347Z,96579.41
2023-05-23T00:52:38.057Z,96582.28
2023-05-23T00:55:08.617Z,96577.72
2023-05-23T00:57:40.390Z,96573.47
2023-05-23T01:00:11.006Z,96571.97
2023-05-23T01:02:45.105Z,96578.59
2023-05-23T01:05:17.783Z,96577.28
2023-05-23T01:07:49.126Z,96573.25
2023-05-23T01:10:21.105Z,96579.66
2023-05-23T01:12:59.432Z,96576.91
2023-05-23T01:15:38.974Z,96577.72
2023-05-23T01:18:12.280Z,96574.56
2023-05-23T01:20:46.190Z,96575.94
2023-05-23T01:23:57.264Z,96591.69
2023-05-23T01:26:41.827Z,96586.19
2023-05-23T01:29:23.600Z,96586.41
2023-05-23T01:31:55.619Z,96581.84
2023-05-23T01:34:24.797Z,96580.41
2023-05-23T01:36:56.773Z,96585.13
2023-05-23T01:39:25.938Z,96580.16
2023-05-23T01:41:55.323Z,96579.78
2023-05-23T01:44:25.290Z,96586.81
2023-05-23T01:46:53.599Z,96590.38
2023-05-23T01:49:25.841Z,96581.00
2023-05-23T01:51:54.949Z,96579.28
2023-05-23T01:54:24.072Z,96585.78
2023-05-23T01:56:53.435Z,96589.16
2023-05-23T01:59:22.217Z,96589.75
2023-05-23T02:01:52.700Z,96578.72
2023-05-23T02:04:22.752Z,96586.13
2023-05-23T02:06:51.092Z,96576.59
2023-05-23T02:09:19.976Z,96575.13
2023-05-23T02:11:48.630Z,96575.13
2023-05-23T02:14:18.585Z,96582.16
2023-05-23T02:16:47.309Z,96593.06
2023-05-23T02:19:17.807Z,96595.81
2023-05-23T02:21:48.434Z,96588.75
2023-05-23T02:24:16.880Z,96598.34
2023-05-23T02:26:47.222Z,96596.44
2023-05-23T02:29:16.586Z,96594.50
2023-05-23T02:31:45.103Z,96592.56
2023-05-23T02:34:14.063Z,96594.94
2023-05-23T02:36:44.148Z,96599.00
2023-05-23T02:39:13.200Z,96602.34
2023-05-23T02:41:42.040Z,96596.22
2023-05-23T02:44:10.759Z,96591.03
2023-05-23T02:46:39.607Z,96594.78
2023-05-23T02:49:08.430Z,96594.34
2023-05-23T02:51:37.437Z,96606.38
2023-05-23T02:54:07.692Z,96600.44
2023-05-23T02:56:38.941Z,96597.41
2023-05-23T02:59:07.699Z,96602.41
2023-05-23T03:01:36.452Z,96603.13
2023-05-23T03:04:05.909Z,96598.16
2023-05-23T03:06:37.108Z,96611.03
2023-05-23T03:09:08.059Z,96604.38
2023-05-23T03:11:36.546Z,96599.72
2023-05-23T03:14:05.533Z,96597.78
2023-05-23T03:16:34.197Z,96607.56
2023-05-23T03:19:03.174Z,96605.25
2023-05-23T03:21:32.999Z,96595.66
2023-05-23T03:24:01.823Z,96601.41
2023-05-23T03:26:33.274Z,96598.72
2023-05-23T03:29:01.925Z,96601.69
2023-05-23T03:31:30.851Z,96611.03
2023-05-23T03:33:59.940Z,96615.22
2023-05-23T03:36:28.581Z,96616.97
2023-05-23T03:38:57.332Z,96614.94
2023-05-23T03:41:26.842Z,96609.41
2023-05-23T03:43:57.563Z,96619.94
2023-05-23T03:46:26.817Z,96620.59
2023-05-23T03:48:55.965Z,96612.38
2023-05-23T03:51:25.425Z,96612.16
2023-05-23T03:53:54.700Z,96614.56
2023-05-23T03:56:23.958Z,96612.47
2023-05-23T03:58:52.850Z,96608.88
2023-05-23T04:01:23.170Z,96618.13
2023-05-23T04:03:53.022Z,96602.19
2023-05-23T04:06:24.832Z,96616.91
2023-05-23T04:08:53.741Z,96617.84
2023-05-23T04:11:22.707Z,96606.69
2023-05-23T04:13:53.639Z,96612.78
2023-05-23T04:16:24.316Z,96623.56
2023-05-23T04:18:54.607Z,96635.09
2023-05-23T04:21:23.377Z,96643.69
2023-05-23T04:24:03.358Z,96639.44
2023-05-23T04:26:33.000Z,96636.38
2023-05-23T04:29:04.222Z,96633.91
2023-05-23T04:31:35.342Z,96633.03
2023-05-23T04:34:04.275Z,96638.38
2023-05-23T04:36:38.364Z,96636.72
2023-05-23T04:39:08.219Z,96640.09
2023-05-23T04:41:42.113Z,96642.28
2023-05-23T04:44:30.299Z,96645.59
2023-05-23T04:47:28.208Z,96644.91
2023-05-23T04:50:03.716Z,96650.13
2023-05-23T04:52:34.122Z,96644.84
2023-05-23T04:55:03.693Z,96637.66
2023-05-23T04:57:32.595Z,96652.25
2023-05-23T05:00:08.326Z,96649.25
2023-05-23T05:02:38.323Z,96657.63
2023-05-23T05:05:07.927Z,96660.22
2023-05-23T05:07:37.027Z,96657.94
2023-05-23T05:10:07.879Z,96663.19
2023-05-23T05:12:36.812Z,96668.19
2023-05-23T05:15:06.270Z,96669.16
2023-05-23T05:17:37.071Z,96679.13
2023-05-23T05:20:12.450Z,96671.38
2023-05-23T05:22:41.505Z,96678.44
2023-05-23T05:25:13.015Z,96672.00
2023-05-23T05:27:41.667Z,96681.22
2023-05-23T05:30:15.146Z,96678.63
2023-05-23T05:32:54.292Z,96682.09
2023-05-23T05:35:24.330Z,96687.91
2023-05-23T05:37:53.057Z,96697.78
2023-05-23T05:40:22.636Z,96701.16
2023-05-23T05:42:53.216Z,96697.13
2023-05-23T05:45:23.906Z,96692.34
2023-05-23T05:47:52.996Z,96691.00
2023-05-23T05:50:24.762Z,96688.91
2023-05-23T05:52:53.413Z,96689.31
2023-05-23T05:55:22.329Z,96688.25
2023-05-23T05:57:54.596Z,96687.66
2023-05-23T06:00:24.049Z,96698.91
2023-05-23T06:02:57.577Z,96699.91
2023-05-23T06:05:46.745Z,96702.28
2023-05-23T06:08:15.429Z,96701.00
2023-05-23T06:10:45.054Z,96706.19
2023-05-23T06:13:13.830Z,96707.84
2023-05-23T06:15:45.498Z,96718.97
2023-05-23T06:18:15.265Z,96716.19
2023-05-23T06:20:45.230Z,96729.31
2023-05-23T06:23:17.526Z,96717.38
2023-05-23T06:25:48.284Z,96718.13
2023-05-23T06:28:17.081Z,96721.25
2023-05-23T06:30:47.794Z,96721.19
2023-05-23T06:33:17.464Z,96724.31
2023-05-23T06:35:47.491Z,96727.38
2023-05-23T06:38:17.792Z,96724.94
2023-05-23T06:40:46.409Z,96722.59
2023-05-23T06:43:16.663Z,96726.53
2023-05-23T06:46:08.365Z,96717.44
2023-05-23T06:48:37.563Z,96728.13
2023-05-23T06:51:07.871Z,96731.31
2023-05-23T06:53:36.704Z,96727.75
2023-05-23T06:56:06.172Z,96727.38
2023-05-23T06:58:41.306Z,96723.91
2023-05-23T07:01:10.780Z,96730.63
2023-05-23T07:03:45.825Z,96740.16
2023-05-23T07:06:16.312Z,96743.31
2023-05-23T07:08:45.177Z,96747.66
2023-05-23T07:11:13.570Z,96746.91
2023-05-23T07:13:45.642Z,96749.72
2023-05-23T07:16:22.694Z,96752.25
2023-05-23T07:19:05.398Z,96751.41
2023-05-23T07:21:38.045Z,96753.44
2023-05-23T07:24:08.385Z,96755.78
2023-05-23T07:26:37.316Z,96760.50
2023-05-23T07:29:08.367Z,96753.09
2023-05-23T07:31:38.271Z,96753.13
2023-05-23T07:34:07.274Z,96755.13
2023-05-23T07:36:45.828Z,96752.34
2023-05-23T07:39:15.679Z,96745.81
2023-05-23T07:41:44.363Z,96747.75
2023-05-23T07:44:13.003Z,96756.09
2023-05-23T07:46:41.544Z,96755.44
2023-05-23T07:49:10.339Z,96763.41
2023-05-23T07:51:38.804Z,96762.63
2023-05-23T07:54:10.038Z,96766.59
2023-05-23T07:56:41.721Z,96772.53
2023-05-23T07:59:10.412Z,96761.44
2023-05-23T08:01:39.156Z,96767.34
2023-05-23T08:04:09.434Z,96762.84
2023-05-23T08:07:04.190Z,96766.06
2023-05-23T08:09:44.092Z,96765.81
2023-05-23T08:12:16.574Z,96762.84
2023-05-23T08:14:51.689Z,96759.22
2023-05-23T08:17:34.933Z,96770.19
2023-05-23T08:20:05.320Z,96769.81
2023-05-23T08:22:34.124Z,96765.81
2023-05-23T08:25:04.481Z,96767.78
2023-05-23T08:27:36.068Z,96768.97
2023-05-23T08:30:13.378Z,96772.53
2023-05-23T08:32:41.839Z,96769.00
2023-05-23T08:35:11.256Z,96782.47
2023-05-23T08:37:43.125Z,96781.66
2023-05-23T08:40:19.322Z,96781.59
2023-05-23T08:42:52.468Z,96774.13
2023-05-23T08:45:23.771Z,96772.72
2023-05-23T08:47:55.678Z,96767.94
2023-05-23T08:50:28.070Z,96773.31
2023-05-23T08:52:59.209Z,96772.56
2023-05-23T08:55:31.663Z,96780.09
2023-05-23T08:58:03.610Z,96773.19
2023-05-23T09:00:53.786Z,96767.44
2023-05-23T09:03:23.396Z,96768.22
2023-05-23T09:06:08.414Z,96784.69
2023-05-23T09:08:37.598Z,96779.91
2023-05-23T09:11:08.920Z,96785.63
2023-05-23T09:13:41.888Z,96791.59
2023-05-23T09:16:13.732Z,96786.63
2023-05-23T09:18:48.120Z,96793.34
2023-05-23T09:21:18.988Z,96794.91
2023-05-23T09:23:56.928Z,96799.38
2023-05-23T09:26:28.300Z,96803.75
2023-05-23T09:29:00.508Z,96803.50
2023-05-23T09:31:29.812Z,96800.31
2023-05-23T09:34:00.219Z,96798.06
2023-05-23T09:36:32.630Z,96807.22
2023-05-23T09:39:05.775Z,96811.00
2023-05-23T09:41:37.203Z,96809.47
2023-05-23T09:44:10.442Z,96810.28
2023-05-23T09:46:39.660Z,96808.63
2023-05-23T09:49:18.979Z,96812.63
2023-05-23T09:51:59.483Z,96814.25
2023-05-23T09:54:28.303Z,96814.28
2023-05-23T09:57:02.141Z,96817.38
2023-05-23T09:59:33.623Z,96821.38
2023-05-23T10:02:08.231Z,96824.31
2023-05-23T10:04:39.328Z,96813.50
2023-05-23T10:07:17.593Z,96815.47
2023-05-23T10:09:58.220Z,96826.41
2023-05-23T10:12:49.081Z,96830.16
2023-05-23T10:15:19.562Z,96828.56
2023-05-23T10:18:13.932Z,96825.06
2023-05-23T10:20:50.217Z,96825.75
2023-05-23T10:23:19.967Z,96833.19
2023-05-23T10:25:50.089Z,96822.03
2023-05-23T10:28:21.006Z,96829.28
2023-05-23T10:30:49.825Z,96828.16
2023-05-23T10:33:20.006Z,96819.50
2023-05-23T10:36:01.192Z,96820.88
2023-05-23T10:38:37.821Z,96820.16
2023-05-23T10:41:13.674Z,96820.72
2023-05-23T10:43:52.010Z,96823.69
2023-05-23T10:46:22.989Z,96824.03
2023-05-23T10:48:57.746Z,96815.28
2023-05-23T10:51:26.849Z,96825.41
2023-05-23T10:53:56.461Z,96824.41
2023-05-23T10:56:26.119Z,96829.69
2023-05-23T10:58:57.573Z,96822.13
2023-05-23T11:01:27.939Z,96818.25
2023-05-23T11:03:57.019Z,96810.09
2023-05-23T11:06:35.475Z,96807.66
2023-05-23T11:09:08.239Z,96794.78
2023-05-23T11:11:59.139Z,96807.75
2023-05-23T11:14:55.556Z,96802.72
2023-05-23T11:17:34.905Z,96804.59
2023-05-23T11:20:07.267Z,96808.50
2023-05-23T11:22:37.248Z,96814.13
2023-05-23T11:25:10.373Z,96806.50
2023-05-23T11:27:40.522Z,96800.22
2023-05-23T11:30:13.675Z,96801.75
2023-05-23T11:32:43.516Z,96799.59
2023-05-23T11:35:12.854Z,96803.94
2023-05-23T11:37:41.907Z,96790.31
2023-05-23T11:40:31.122Z,96803.16
2023-05-23T11:43:00.987Z,96792.97
2023-05-23T11:45:32.868Z,96796.69
2023-05-23T11:48:07.844Z,96800.56
2023-05-23T11:50:45.062Z,96796.78
2023-05-23T11:53:17.132Z,96795.00
2023-05-23T11:55:53.146Z,96786.88
2023-05-23T11:58:23.527Z,96791.94
2023-05-23T12:00:55.215Z,96783.25
2023-05-23T12:03:24.356Z,96791.47
2023-05-23T12:05:53.200Z,96802.81
2023-05-23T12:08:22.062Z,96807.66
2023-05-23T12:10:53.893Z,96796.38
2023-05-23T12:13:25.586Z,96810.25
2023-05-23T12:15:58.702Z,96810.59
2023-05-23T12:18:30.955Z,96808.19
2023-05-23T12:21:03.329Z,96816.19
2023-05-23T12:23:34.516Z,96813.25
2023-05-23T12:26:08.297Z,96813.28
2023-05-23T12:28:38.663Z,96817.31
2023-05-23T12:31:13.345Z,96818.91
2023-05-23T12:33:43.953Z,96802.75
2023-05-23T12:36:13.033Z,96826.16
2023-05-23T12:38:45.438Z,96828.56
2023-05-23T12:41:19.484Z,96828.72
2023-05-23T12:43:53.293Z,96830.47
2023-05-23T12:46:24.597Z,96833.84
2023-05-23T12:48:53.967Z,96832.56
2023-05-23T12:51:23.616Z,96832.88
2023-05-23T12:53:53.213Z,96839.50
2023-05-23T12:56:23.103Z,96836.66
2023-05-23T12:58:51.579Z,96838.84
2023-05-23T13:01:20.405Z,96834.84
2023-05-23T13:03:50.730Z,96841.97
2023-05-23T13:06:19.548Z,96839.53
2023-05-23T13:08:48.747Z,96839.06
2023-05-23T13:11:17.618Z,96844.44
2023-05-23T13:13:46.948Z,96847.97
2023-05-23T13:16:15.874Z,96847.16
2023-05-23T13:18:44.557Z,96840.13
2023-05-23T13:21:14.617Z,96853.94
2023-05-23T13:23:43.296Z,96848.28
2023-05-23T13:26:12.189Z,96844.53
2023-05-23T13:28:40.843Z,96839.38
2023-05-23T13:31:09.523Z,96842.53
2023-05-23T13:33:38.191Z,96830.94
2023-05-23T13:36:07.450Z,96834.91
2023-05-23T13:38:38.708Z,96830.53
2023-05-23T13:41:07.856Z,96828.88
2023-05-23T13:43:36.551Z,96834.69
2023-05-23T13:46:05.374Z,96838.06
2023-05-23T13:48:33.820Z,96829.66
2023-05-23T13:51:03.902Z,96830.94
2023-05-23T13:53:32.342Z,96838.94
2023-05-23T13:56:02.056Z,96826.97
2023-05-23T13:58:32.708Z,96835.50
2023-05-23T14:01:01.768Z,96840.69
2023-05-23T14:03:30.460Z,96839.44
2023-05-23T14:05:58.793Z,96834.19
2023-05-23T14:08:27.303Z,96839.13
2023-05-23T14:10:55.949Z,96838.44
2023-05-23T14:13:26.100Z,96829.16
2023-05-23T14:15:54.834Z,96837.63
2023-05-23T14:18:23.639Z,96841.97
2023-05-23T14:20:52.315Z,96842.31
2023-05-23T14:23:20.988Z,96842.81
2023-05-23T14:25:49.375Z,96831.41
2023-05-23T14:28:18.062Z,96840.53
2023-05-23T14:30:48.583Z,96842.50
2023-05-23T14:33:17.390Z,96844.28
2023-05-23T14:35:46.388Z,96841.44
2023-05-23T14:38:15.487Z,96844.09
2023-05-23T14:40:44.593Z,96838.81
2023-05-23T14:43:13.828Z,96834.03
2023-05-23T14:45:43.886Z,96831.56
2023-05-23T14:48:14.083Z,96840.97
2023-05-23T14:50:42.770Z,96842.53
2023-05-23T14:53:11.717Z,96843.69
2023-05-23T14:55:40.784Z,96848.06
2023-05-23T14:58:09.674Z,96849.16
2023-05-23T15:00:40.685Z,96855.13
2023-05-23T15:03:10.570Z,96850.31
2023-05-23T15:05:40.780Z,96846.91
2023-05-23T15:08:09.881Z,96853.56
2023-05-23T15:10:38.850Z,96853.91
2023-05-23T15:13:07.510Z,96854.84
2023-05-23T15:15:38.852Z,96847.63
2023-05-23T15:18:10.078Z,96858.09
2023-05-23T15:20:40.022Z,96861.38
2023-05-23T15:23:12.797Z,96861.84
2023-05-23T15:28:14.303Z,96863.50
2023-05-23T15:30:44.052Z,96862.72
2023-05-23T15:33:13.089Z,96857.91
2023-05-23T15:35:43.909Z,96858.41
2023-05-23T15:38:14.377Z,96856.69
2023-05-23T15:40:44.107Z,96856.34
2023-05-23T15:43:13.062Z,96851.47
2023-05-23T15:45:41.784Z,96842.09
2023-05-23T15:48:11.296Z,96857.75
2023-05-23T15:50:40.425Z,96856.50
2023-05-23T15:53:10.821Z,96858.00
2023-05-23T15:55:42.140Z,96863.47
2023-05-23T15:58:11.783Z,96863.78
2023-05-23T16:00:40.686Z,96864.06
2023-05-23T16:03:09.582Z,96857.66
2023-05-23T16:05:38.460Z,96869.44
2023-05-23T16:08:07.387Z,96859.53
2023-05-23T16:10:37.549Z,96869.84
2023-05-23T16:13:07.704Z,96870.59
2023-05-23T16:15:36.583Z,96874.59
2023-05-23T16:18:05.652Z,96867.44
2023-05-23T16:20:34.946Z,96866.66
2023-05-23T16:23:03.959Z,96872.22
2023-05-23T16:25:32.681Z,96866.22
2023-05-23T16:28:02.759Z,96872.22
2023-05-23T16:30:31.394Z,96872.94
2023-05-23T16:33:00.058Z,96878.06
2023-05-23T16:35:28.961Z,96871.97
2023-05-23T16:37:57.611Z,96875.13
2023-05-23T16:40:26.361Z,96880.25
2023-05-23T16:42:54.999Z,96882.22
2023-05-23T16:45:25.183Z,96884.06
2023-05-23T16:47:53.757Z,96877.00
2023-05-23T16:50:22.156Z,96871.19
2023-05-23T16:52:50.899Z,96870.91
2023-05-23T16:55:19.727Z,96872.16
2023-05-23T16:57:48.182Z,96870.13
2023-05-23T17:00:17.634Z,96875.31
2023-05-23T17:02:47.791Z,96871.72
2023-05-23T17:05:16.758Z,96876.03
2023-05-23T17:07:45.282Z,96880.78
2023-05-23T17:10:14.055Z,96882.34
2023-05-23T17:12:42.698Z,96878.91
2023-05-23T17:15:12.072Z,96869.84
2023-05-23T17:17:41.588Z,96881.38
2023-05-23T17:20:12.831Z,96886.50
2023-05-23T17:22:41.852Z,96880.41
2023-05-23T17:25:10.936Z,96883.84
2023-05-23T17:27:39.336Z,96884.31
2023-05-23T17:30:09.312Z,96886.28
2023-05-23T17:32:38.300Z,96882.22
2023-05-23T17:35:07.674Z,96888.91
2023-05-23T17:37:37.814Z,96889.00
2023-05-23T17:40:07.646Z,96886.16
2023-05-23T17:42:36.481Z,96887.38
2023-05-23T17:45:05.820Z,96895.66
2023-05-23T17:47:34.727Z,96901.34
2023-05-23T17:50:04.084Z,96898.06
2023-05-23T17:52:33.038Z,96894.72
2023-05-23T17:55:03.712Z,96901.00
2023-05-23T17:57:32.389Z,96905.63
2023-05-23T18:00:01.209Z,96913.13
2023-05-23T18:02:30.806Z,96910.63
2023-05-23T18:05:00.170Z,96910.72
2023-05-23T18:07:28.770Z,96911.72
2023-05-23T18:09:59.646Z,96911.34
2023-05-23T18:12:29.647Z,96908.22
2023-05-23T18:14:58.464Z,96919.03
2023-05-23T18:17:27.439Z,96909.91
2023-05-23T18:19:56.172Z,96917.78
2023-05-23T18:22:24.813Z,96913.00
2023-05-23T18:24:53.534Z,96917.66
2023-05-23T18:27:22.622Z,96919.69
2023-05-23T18:29:53.016Z,96919.84
2023-05-23T18:32:21.969Z,96922.56
2023-05-23T18:34:50.575Z,96920.19
2023-05-23T18:37:19.407Z,96918.84
2023-05-23T18:39:48.196Z,96932.44
2023-05-23T18:42:16.909Z,96929.78
2023-05-23T18:44:46.588Z,96934.72
2023-05-23T18:47:16.599Z,96932.50
2023-05-23T18:49:45.362Z,96938.06
2023-05-23T18:52:14.194Z,96943.72
2023-05-23T18:54:43.314Z,96941.69
2023-05-23T18:57:12.418Z,96943.91
2023-05-23T18:59:41.060Z,96954.91
2023-05-23T19:02:09.894Z,96959.00
2023-05-23T19:04:41.662Z,96956.03
2023-05-23T19:07:10.660Z,96957.66
2023-05-23T19:09:39.343Z,96959.81
2023-05-23T19:12:08.383Z,96957.66
2023-05-23T19:14:37.111Z,96958.69
2023-05-23T19:17:06.405Z,96962.47
2023-05-23T19:19:36.135Z,96959.03
2023-05-23T19:22:06.998Z,96967.31
2023-05-23T19:24:35.756Z,96968.94
2023-05-23T19:27:04.853Z,96978.06
2023-05-23T19:29:33.635Z,96972.91
2023-05-23T19:32:02.695Z,96981.44
2023-05-23T19:34:31.403Z,96989.19
2023-05-23T19:37:00.598Z,96984.56
2023-05-23T19:39:30.660Z,96988.75
2023-05-23T19:42:00.986Z,96995.44
2023-05-23T19:44:29.668Z,96991.66
2023-05-23T19:46:58.377Z,96997.88
2023-05-23T19:49:27.518Z,96999.41
2023-05-23T19:51:55.813Z,96998.50
2023-05-23T19:54:24.302Z,97009.50
2023-05-23T19:56:54.532Z,97004.69
2023-05-23T19:59:23.258Z,97018.09
2023-05-23T20:01:51.699Z,97017.66
2023-05-23T20:04:23.785Z,97020.97
2023-05-23T20:06:53.411Z,97017.47
2023-05-23T20:09:22.259Z,97028.69
2023-05-23T20:11:51.038Z,97026.97
2023-05-23T20:14:21.165Z,97025.91
2023-05-23T20:16:49.829Z,97039.66
2023-05-23T20:19:18.838Z,97035.22
2023-05-23T20:21:47.683Z,97036.41
2023-05-23T20:24:16.506Z,97039.06
2023-05-23T20:26:45.234Z,97038.22
2023-05-23T20:29:14.216Z,97045.91
2023-05-23T20:31:44.500Z,97049.63
2023-05-23T20:34:12.937Z,97040.22
2023-05-23T20:36:41.798Z,97054.84
2023-05-23T20:39:10.727Z,97046.84
2023-05-23T20:41:42.218Z,97049.50
2023-05-23T20:44:14.220Z,97044.63
2023-05-23T20:46:44.519Z,97055.97
2023-05-23T20:49:13.963Z,97050.53
2023-05-23T20:51:42.948Z,97054.63
2023-05-23T20:54:12.892Z,97050.72
2023-05-23T20:56:41.672Z,97054.09
2023-05-23T20:59:12.276Z,97049.09
2023-05-23T21:01:41.151Z,97051.63
2023-05-23T21:04:11.275Z,97051.03
2023-05-23T21:06:39.626Z,97063.63
2023-05-23T21:09:09.822Z,97059.84
2023-05-23T21:11:38.503Z,97062.25
2023-05-23T21:14:07.780Z,97061.94
2023-05-23T21:16:36.497Z,97056.53
2023-05-23T21:19:05.300Z,97058.41
2023-05-23T21:21:35.952Z,97058.47
2023-05-23T21:24:05.221Z,97054.31
2023-05-23T21:26:34.020Z,97054.44
2023-05-23T21:29:02.665Z,97058.69
2023-05-23T21:31:41.065Z,97058.56
2023-05-23T21:34:23.216Z,97064.84
2023-05-23T21:36:55.511Z,97067.72
2023-05-23T21:39:24.173Z,97064.97
2023-05-23T21:41:52.835Z,97073.25
2023-05-23T21:44:21.602Z,97075.41
2023-05-23T21:46:50.484Z,97073.59
2023-05-23T21:49:19.219Z,97078.19
2023-05-23T21:51:48.166Z,97078.41
2023-05-23T21:54:18.671Z,97079.91
2023-05-23T21:56:47.719Z,97082.88
2023-05-23T21:59:16.418Z,97084.59
2023-05-23T22:01:44.750Z,97085.84
2023-05-23T22:04:13.406Z,97087.00
2023-05-23T22:06:42.167Z,97090.66
2023-05-23T22:09:11.577Z,97090.91
2023-05-23T22:11:41.627Z,97092.72
2023-05-23T22:14:10.767Z,97109.78
2023-05-23T22:16:40.373Z,97103.97
2023-05-23T22:19:10.353Z,97107.19
2023-05-23T22:21:39.575Z,97116.34
2023-05-23T22:24:08.609Z,97105.34
2023-05-23T22:26:37.428Z,97113.47
2023-05-23T22:29:07.228Z,97122.72
2023-05-23T22:31:36.109Z,97119.53
2023-05-23T22:34:04.809Z,97124.00
2023-05-23T22:36:34.260Z,97125.91
2023-05-23T22:39:05.236Z,97129.19
2023-05-23T22:41:34.531Z,97137.00
2023-05-23T22:44:03.619Z,97131.75
2023-05-23T22:46:33.729Z,97130.97
2023-05-23T22:49:03.760Z,97130.63
2023-05-23T22:51:34.047Z,97130.34
2023-05-23T22:54:03.329Z,97121.88
2023-05-23T22:56:31.600Z,97109.78
2023-05-23T22:59:00.240Z,97106.47
2023-05-23T23:01:29.934Z,97117.84
2023-05-23T23:03:59.925Z,97108.44
2023-05-23T23:06:29.364Z,97107.97
2023-05-23T23:08:58.046Z,97106.47
2023-05-23T23:11:26.817Z,97110.72
2023-05-23T23:13:55.490Z,97108.09
2023-05-23T23:16:24.559Z,97112.22
2023-05-23T23:18:53.246Z,97119.41
2023-05-23T23:21:23.276Z,97120.22
2023-05-23T23:23:51.913Z,97126.97
2023-05-23T23:26:21.592Z,97122.88
2023-05-23T23:28:50.292Z,97128.38
2023-05-23T23:31:18.717Z,97119.88
2023-05-23T23:33:47.908Z,97121.13
2023-05-23T23:36:16.302Z,97119.41
2023-05-23T23:38:46.543Z,97110.38
2023-05-23T23:41:15.200Z,97112.31
2023-05-23T23:43:44.154Z,97110.25
2023-05-23T23:46:12.846Z,97108.06
2023-05-23T23:48:41.487Z,97109.81
2023-05-23T23:51:10.014Z,97108.97
2023-05-23T23:53:38.399Z,97111.28
2023-05-23T23:56:08.169Z,97113.72
2023-05-23T23:58:36.770Z,97113.69
